KIAB/IAB METAR and TAF weather

Enter ICAO airport designator
Station Type Date Time Source
KIAB METAR 2021/04/13 06:56 UTC NOAA

KIAB 130656Z AUTO 01005KT 10SM CLR 06/M03 A3014 RMK AO2 SLP211 T00551031 $


Station Type Date Time Source
KIAB Decoded METAR 2021/04/13 06:56 UTC NOAA

McConnell Air Force Base, KS, United States (KIAB) 37-37N 097-16W
Apr 13, 2021 - 02:56 AM EDT / 2021.04.13 0656 UTC
Wind: from the N (010 degrees) at 6 MPH (5 KT):0
Visibility: 10 mile(s):0
Sky conditions: clear
Temperature: 41.9 F (5.5 C)
Dew Point: 26.4 F (-3.1 C)
Relative Humidity: 53%
Pressure (altimeter): 30.14 in. Hg (1020 hPa)
ob: KIAB 130656Z AUTO 01005KT 10SM CLR 06/M03 A3014 RMK AO2 SLP211 T00551031
cycle: 7

Station Type Date Time Source
KIAB TAF 2021/04/13 02:20 UTC NOAA

TAF KIAB 130200Z 1302/1408 02009KT 9999 SCT110 BKN220 QNH3006INS
BECMG 1314/1315 03012G22KT 9999 SCT100 BKN120 621205 QNH3014INS
BECMG 1400/1401 02006KT 9999 BKN080 620805 QNH3016INS TX16/1321Z TN04/1311Z

Example: see airport list